• Join FlightAware (Why Join?)
  • Login
  • US Flag 
06:00PM EST


 

Airport Tracker/Info


-or-


 

Live Flight TrackerFlight Track Log ✈ SWA864 ✈ 11-May-2013 ✈ KSAT - KMCO

Flight Track Log - Related Links

Times and Time Zones

All times are in EDT time to prevent confusion due to time zone crossing. See the SWA864 flight status page for this flight to view local times or setup timezone preferences in your user account.

Time Position Orientation Groundspeed Altitude Reporting Facility
EDT Latitude Longitude Course Direction KTS MPH feet Rate Location/Type
04:17PM 29.5753 -98.4192 40° Northeast 183 211 3,100  Level Houston Center
04:17PM 29.6000 -98.3969 38° Northeast 200 230 4,800 2,820 Climbing Houston Center
04:19PM 29.6153 -98.3286 76° East 233 268 7,400 2,700 Climbing Houston Center
04:20PM 29.6239 -98.2386 84° East 289 333 10,400 3,000 Climbing Houston Center
04:21PM 29.6317 -98.1289 85° East 321 369 13,600 2,940 Climbing Houston Center
04:22PM 29.6400 -98.0133 85° East 360 414 16,500 2,580 Climbing Houston Center
04:23PM 29.6486 -97.8883 85° East 389 448 19,000 2,400 Climbing Houston Center
04:24PM 29.6553 -97.7483 87° East 430 495 21,500 2,460 Climbing Houston Center
04:25PM 29.6553 -97.6083 90° East 438 504 24,100 2,160 Climbing Houston Center
04:26PM 29.6569 -97.4617 89° East 454 522 26,000 1,920 Climbing Houston Center
04:27PM 29.6586 -97.3072 89° East 478 550 28,100 1,800 Climbing Houston Center
04:28PM 29.6597 -97.1497 89° East 489 563 29,700 1,500 Climbing Houston Center
04:29PM 29.6569 -96.9853 91° East 506 582 31,200 1,440 Climbing Houston Center
04:30PM 29.6503 -96.8175 93° East 522 601 32,700 1,680 Climbing Houston Center
04:31PM 29.6794 -96.6467 79° East 537 618 34,700 1,500 Climbing Houston Center
04:32PM 29.7044 -96.4778 80° East 534 615 35,900 960 Climbing Houston Center
04:33PM 29.7311 -96.3058 80° East 543 625 36,700 900 Climbing Houston Center
04:34PM 29.7639 -96.0978 80° East 549 632 37,800 960 Climbing Houston Center
04:35PM 29.7875 -95.9514 79° East 547 629 38,700 540 Climbing Houston Center
04:36PM 29.8186 -95.7442 80° East 548 631 39,000 120 Climbing Houston Center
04:37PM 29.8450 -95.5731 80° East 543 625 39,000  Level Houston Center
04:38PM 29.8708 -95.3986 80° East 546 628 39,000  Level Houston Center
04:39PM 29.8997 -95.2236 79° East 549 632 39,000  Level Houston Center
04:40PM 29.9231 -95.0475 81° East 549 632 39,000  Level Houston Center
04:41PM 29.9503 -94.8725 80° East 549 632 39,000  Level Houston Center
04:42PM 29.9753 -94.6994 80° East 546 628 39,000  Level Houston Center
04:43PM 30.0000 -94.5247 81° East 549 632 39,000  Level Houston Center
04:44PM 30.0225 -94.3522 81° East 546 628 39,000  Level Houston Center
04:45PM 30.0519 -94.1483 80° East 548 631 39,000  Level Houston Center
04:46PM 30.0756 -93.9761 81° East 547 629 39,000  Level Houston Center
04:47PM 30.0992 -93.8050 81° East 543 625 39,000  Level Houston Center
04:48PM 30.1211 -93.6344 81° East 542 624 39,000  Level Houston Center
04:49PM 30.1422 -93.4656 82° East 542 624 39,000  Level Houston Center
04:50PM 30.1694 -93.2633 81° East 541 623 39,000  Level Houston Center
04:51PM 30.1939 -93.0936 80° East 541 623 39,000  Level Houston Center
04:52PM 30.2172 -92.9250 81° East 537 618 39,000  Level Houston Center
04:53PM 30.2392 -92.7547 81° East 538 619 39,000  Level Houston Center
04:54PM 30.2617 -92.5847 81° East 537 618 39,000  Level Houston Center
04:55PM 30.2797 -92.4169 83° East 530 610 39,000  Level Houston Center
04:57PM 30.3050 -92.2147 82° East 537 618 39,000  Level Houston Center
04:58PM 30.3261 -92.0472 82° East 531 611 39,000  Level Houston Center
04:59PM 30.3469 -91.8794 82° East 530 610 39,000  Level Houston Center
05:00PM 30.3783 -91.7175 77° East 533 613 39,000  Level Houston Center
05:01PM 30.4208 -91.5522 73° East 536 617 39,000  Level Houston Center
05:02PM 30.4586 -91.3875 75° East 532 612 39,000  Level Houston Center
05:03PM 30.5031 -91.1869 76° East 534 615 39,000  Level Houston Center
05:04PM 30.5408 -91.0206 75° East 533 613 39,000  Level Houston Center
05:05PM 30.5797 -90.8544 75° East 534 615 39,000  Level Houston Center
05:06PM 30.6178 -90.6881 75° East 533 613 39,000  Level Houston Center
05:07PM 30.6553 -90.5211 75° East 534 615 39,000  Level Houston Center
05:08PM 30.6939 -90.3539 75° East 535 616 39,000  Level Houston Center
05:09PM 30.7303 -90.1864 76° East 533 613 39,000  Level Houston Center
05:10PM 30.7683 -90.0186 75° East 533 613 39,000  Level Houston Center
05:11PM 30.8125 -89.8183 76° East 529 609 39,000  Level Houston Center
05:12PM 30.8486 -89.6517 76° East 528 608 39,000  Level Houston Center
05:13PM 30.8861 -89.4828 75° East 534 615 39,000  Level Houston Center
05:14PM 30.9225 -89.3156 76° East 531 611 39,000  Level Houston Center
05:15PM 30.9572 -89.1450 77° East 541 623 39,000  Level Houston Center
05:16PM 30.9928 -88.9756 76° East 538 619 39,000  Level Houston Center
05:17PM 31.0281 -88.8067 76° East 534 615 39,000  Level Houston Center
05:18PM 31.0644 -88.6358 76° East 538 619 39,000  Level Houston Center
05:19PM 31.0903 -88.4650 80° East 537 618 39,000  Level Houston Center
05:20PM 31.0647 -88.2617 98° East 532 612 39,000  Level Houston Center
05:21PM 31.0397 -88.0950 100° East 524 603 39,000  Level Houston Center
05:22PM 31.0167 -87.9278 99° East 524 603 39,000  Level Houston Center
05:23PM 30.9919 -87.7619 100° East 522 601 39,000  Level Houston Center
05:24PM 30.9644 -87.5769 100° East 524 603 39,000  Level Houston Center
05:25PM 30.9553 -87.5094 99° East 525 604 39,000  Level Jacksonville Center
05:26PM 30.9297 -87.3436 100° East 525 604 39,000 -60 Level Jacksonville Center
05:27PM 30.9064 -87.1778 99° East 520 598 38,900 -720 Descending Jacksonville Center
05:28PM 30.8803 -87.0144 101° East 520 598 37,600 -1,380 Descending Jacksonville Center
05:29PM 30.8564 -86.8539 100° East 514 592 36,200 -1,260 Descending Jacksonville Center
05:30PM 30.8319 -86.6908 100° East 509 586 35,100 -600 Descending Jacksonville Center
05:31PM 30.8222 -86.5236 94° East 509 586 35,000 -60 Descending Jacksonville Center
05:32PM 30.8164 -86.3611 92° East 503 579 35,000 -1,200 Level Jacksonville Center
05:33PM 30.8167 -86.1967 90° East 503 579 32,600 -1,800 Descending Jacksonville Center
05:34PM 30.8186 -86.0347 89° East 497 572 31,500 -840 Descending Jacksonville Center
05:35PM 30.8181 -85.8800 90° East 491 565 31,000 -300 Descending Jacksonville Center
05:36PM 30.8175 -85.7250 90° East 484 557 31,000  Level Jacksonville Center
05:37PM 30.8167 -85.5703 90° East 479 551 31,000  Level Jacksonville Center
05:38PM 30.8156 -85.4203 90° East 474 545 31,000  Level Jacksonville Center
05:39PM 30.8122 -85.2728 91° East 469 540 31,000  Level Jacksonville Center
05:40PM 30.8128 -85.1203 90° East 464 534 31,000  Level Jacksonville Center
05:41PM 30.7881 -84.9819 102° East 458 527 31,000  Level Jacksonville Center
05:42PM 30.6978 -84.8783 135° Southeast 412 474 31,000  Level Jacksonville Center
05:43PM 30.5989 -84.7992 145° Southeast 405 466 31,000  Level Jacksonville Center
05:44PM 30.5019 -84.7225 146° Southeast 410 472 31,000  Level Jacksonville Center
05:45PM 30.4028 -84.6458 146° Southeast 421 484 31,000  Level Jacksonville Center
05:46PM 30.3097 -84.5672 144° Southeast 421 484 31,000  Level Jacksonville Center
05:47PM 30.2106 -84.4886 146° Southeast 426 490 31,000  Level Jacksonville Center
05:48PM 30.1133 -84.4103 145° Southeast 426 490 31,000  Level Jacksonville Center
05:49PM 30.0142 -84.3317 146° Southeast 426 490 31,000  Level Jacksonville Center
05:50PM 29.9189 -84.2536 145° Southeast 426 490 31,000  Level Jacksonville Center
05:51PM 29.8194 -84.1781 147° Southeast 426 490 31,000  Level Jacksonville Center
05:52PM 29.7367 -84.1078 144° Southeast 421 484 31,000  Level Jacksonville Center
05:53PM 29.6353 -84.0275 145° Southeast 426 490 31,000  Level Jacksonville Center
05:54PM 29.5378 -83.9525 146° Southeast 426 490 31,000  Level Jacksonville Center
05:55PM 29.4422 -83.8750 145° Southeast 426 490 31,000  Level Jacksonville Center
05:56PM 29.3425 -83.7978 146° Southeast 426 490 31,000  Level Jacksonville Center
05:57PM 29.2325 -83.7111 145° Southeast 431 496 31,000 -300 Level Jacksonville Center
05:58PM 29.1328 -83.6319 145° Southeast 431 496 30,500 -660 Descending Jacksonville Center
05:59PM 29.0331 -83.5528 145° Southeast 437 503 29,700 -900 Descending Jacksonville Center
06:00PM 28.9208 -83.4881 153° Southeast 437 503 28,700 -1,020 Descending Jacksonville Center
06:01PM 28.8083 -83.4306 156° South 437 503 27,700 -1,560 Descending Jacksonville Center
06:02PM 28.6958 -83.3778 158° South 442 509 25,600 -2,100 Descending Jacksonville Center
06:03PM 28.5853 -83.3275 158° South 436 502 23,500 -1,800 Descending Jacksonville Center
06:04PM 28.4769 -83.2775 158° South 431 496 22,000 -1,320 Descending Jacksonville Center
06:05PM 28.3747 -83.2300 158° South 424 488 20,900 -1,080 Descending Jacksonville Center
06:06PM 28.2853 -83.1731 151° Southeast 392 451 19,900 -1,080 Descending Jacksonville Center
06:06PM 28.2633 -83.1419 129° Southeast 381 438 19,500 -720 Descending Miami Center
06:07PM 28.1900 -83.0506 132° Southeast 381 438 19,000 -300 Descending Miami Center
06:08PM 28.1208 -82.9622 132° Southeast 381 438 19,000  Level Miami Center
06:09PM 28.0536 -82.8717 130° Southeast 376 433 19,000  Level Miami Center
06:10PM 27.9906 -82.7883 131° Southeast 376 433 19,000 -60 Level Miami Center
06:11PM 27.9128 -82.6975 134° Southeast 387 445 18,900 -600 Descending Miami Center
06:12PM 27.8547 -82.5889 121° Southeast 381 438 17,800 -1,080 Descending Miami Center
06:13PM 27.8444 -82.4733 96° East 357 411 16,800 -1,020 Descending Miami Center
06:14PM 27.8803 -82.3600 70° East 354 407 15,800 -1,020 Descending Miami Center
06:16PM 27.9500 -82.1333 71° East 377 434 13,900 -900 Descending Orlando TRACON
06:17PM 27.9833 -82.0167 72° East 370 426 13,100 -420 Descending Orlando TRACON
06:18PM 28.0333 -81.9333 56° Northeast 360 414 13,100  Level Orlando TRACON
06:19PM 28.0833 -81.8333 60° Northeast 364 419 13,100 -420 Level Orlando TRACON
06:20PM 28.1333 -81.7167 64° Northeast 363 418 12,300 -960 Descending Orlando TRACON
06:22PM 28.2333 -81.5500 56° Northeast 339 390 10,400 -900 Descending Orlando TRACON
06:23PM 28.2833 -81.4833 50° Northeast 335 386 10,000 -240 Descending Orlando TRACON
06:24PM 28.3667 -81.4167 35° Northeast 259 298 10,000 -540 Level Orlando TRACON
06:25PM 28.4167 -81.4167 360° North 264 304 9,000 -900 Descending Orlando TRACON
06:26PM 28.4833 -81.4167 360° North 222 255 8,500 -1,140 Descending Orlando TRACON
06:28PM 28.6000 -81.4000 North 213 245 5,600 -1,320 Descending Orlando TRACON
06:29PM 28.6500 -81.3500 41° Northeast 214 246 4,300 -960 Descending Orlando TRACON
06:30PM 28.6333 -81.3000 111° Southeast 208 239 3,700 -780 Descending Orlando TRACON
06:31PM 28.5833 -81.2833 164° South 180 207 2,900 -900 Descending Orlando TRACON
06:32PM 28.5333 -81.2833 180° South 159 183 1,900 -1,020 Descending Orlando TRACON